createdAt,value
2019-04-21T00:02:39.708Z,101124.56
2019-04-21T00:08:12.816Z,101125.08
2019-04-21T00:12:56.120Z,101119.89
2019-04-21T00:17:56.048Z,101109.22
2019-04-21T00:23:10.213Z,101111.69
2019-04-21T00:28:16.914Z,101106.76
2019-04-21T00:33:09.067Z,101096.65
2019-04-21T00:38:31.162Z,101093.16
2019-04-21T00:43:25.278Z,101100.08
2019-04-21T00:48:34.420Z,101097.10
2019-04-21T00:53:53.486Z,101092.05
2019-04-21T00:58:49.995Z,101090.60
2019-04-21T01:03:51.971Z,101092.95
2019-04-21T01:08:48.919Z,101086.98
2019-04-21T01:14:00.634Z,101077.19
2019-04-21T01:18:57.725Z,101077.47
2019-04-21T01:23:42.268Z,101080.53
2019-04-21T01:29:00.179Z,101076.57
2019-04-21T01:34:08.814Z,101067.45
2019-04-21T01:39:14.933Z,101066.41
2019-04-21T01:44:23.863Z,101065.83
2019-04-21T01:49:11.454Z,101061.94
2019-04-21T01:54:45.545Z,101060.13
2019-04-21T01:59:35.575Z,101060.87
2019-04-21T02:04:57.568Z,101063.66
2019-04-21T02:09:50.723Z,101061.50
2019-04-21T02:15:06.367Z,101065.27
2019-04-21T02:19:56.127Z,101061.27
2019-04-21T02:25:10.846Z,101061.89
2019-04-21T02:30:12.183Z,101050.09
2019-04-21T02:35:30.720Z,101052.48
2019-04-21T02:50:31.842Z,101041.59
2019-04-21T02:55:28.831Z,101043.06
2019-04-21T03:00:55.540Z,101031.08
2019-04-21T03:16:22.997Z,101014.77
2019-04-21T03:26:27.476Z,101008.88
2019-04-21T03:37:00.401Z,101002.94
2019-04-21T03:41:44.019Z,100998.57
2019-04-21T03:46:41.319Z,100995.14
2019-04-21T03:51:49.920Z,100995.10
2019-04-21T03:57:06.061Z,101001.68
2019-04-21T04:02:06.533Z,100998.91
2019-04-21T04:07:39.738Z,100993.64
2019-04-21T04:12:30.074Z,101011.71
2019-04-21T04:27:53.135Z,101005.89
2019-04-21T04:43:00.102Z,101016.81
2019-04-21T04:47:58.366Z,101012.26
2019-04-21T04:53:07.422Z,101011.73
2019-04-21T05:03:14.939Z,101006.50
2019-04-21T05:08:31.617Z,101014.27
2019-04-21T05:13:21.428Z,101009.28
2019-04-21T05:18:28.290Z,101007.62
2019-04-21T05:23:11.765Z,101018.30
2019-04-21T05:28:12.473Z,101016.41
2019-04-21T05:33:34.367Z,101012.92
2019-04-21T05:38:50.548Z,101007.19
2019-04-21T05:43:51.670Z,101012.97
2019-04-21T05:49:04.550Z,101016.36
2019-04-21T05:54:14.753Z,101007.01
2019-04-21T05:59:07.956Z,101001.19
2019-04-21T06:04:16.856Z,100998.95
2019-04-21T06:09:19.036Z,100990.09
2019-04-21T06:14:25.147Z,100991.56
2019-04-21T06:19:30.654Z,100994.67
2019-04-21T06:24:33.804Z,100988.33
2019-04-21T06:29:31.510Z,100987.79
2019-04-21T06:34:51.776Z,100989.17
2019-04-21T06:39:54.045Z,100988.96
2019-04-21T06:44:51.232Z,100988.72
2019-04-21T06:49:45.667Z,100989.31
2019-04-21T06:54:46.902Z,100989.59
2019-04-21T06:59:51.251Z,100991.56
2019-04-21T07:04:54.853Z,100979.78
2019-04-21T07:15:19.793Z,100989.90
2019-04-21T07:20:07.194Z,100983.73
2019-04-21T07:25:10.530Z,100978.53
2019-04-21T07:30:12.947Z,100970.38
2019-04-21T07:35:15.041Z,100974.06
2019-04-21T07:40:15.136Z,100979.28
2019-04-21T07:45:20.602Z,100974.72
2019-04-21T07:50:35.202Z,100976.77
2019-04-21T07:55:33.962Z,100969.37
2019-04-21T08:00:51.467Z,100964.30
2019-04-21T08:05:47.199Z,100954.94
2019-04-21T08:10:47.148Z,100952.80
2019-04-21T08:15:52.993Z,100947.36
2019-04-21T08:20:53.372Z,100940.28
2019-04-21T08:31:01.401Z,100938.50
2019-04-21T08:36:17.727Z,100935.36
2019-04-21T08:41:08.178Z,100928.09
2019-04-21T08:46:13.889Z,100924.28
2019-04-21T08:51:30.239Z,100920.44
2019-04-21T08:56:40.129Z,100921.06
2019-04-21T09:01:50.759Z,100923.19
2019-04-21T09:11:59.730Z,100914.52
2019-04-21T09:16:56.403Z,100914.52
2019-04-21T09:22:20.799Z,100909.00
2019-04-21T09:27:03.500Z,100901.97
2019-04-21T09:31:55.824Z,100889.32
2019-04-21T09:37:13.989Z,100888.75
2019-04-21T09:42:02.821Z,100882.38
2019-04-21T09:47:05.154Z,100871.50
2019-04-21T09:52:15.099Z,100870.56
2019-04-21T09:57:24.380Z,100874.16
2019-04-21T10:02:18.231Z,100870.72
2019-04-21T10:07:26.378Z,100853.20
2019-04-21T10:12:20.564Z,100855.63
2019-04-21T10:17:29.650Z,100846.63
2019-04-21T10:22:31.217Z,100840.73
2019-04-21T10:27:32.803Z,100842.72
2019-04-21T10:32:36.421Z,100840.11
2019-04-21T11:32:47.791Z,100770.19
2019-04-21T11:37:50.317Z,100754.14
2019-04-21T11:42:53.560Z,100755.19
2019-04-21T11:48:18.684Z,100744.59
2019-04-21T11:53:21.047Z,100736.86
2019-04-21T11:58:23.659Z,100750.02
2019-04-21T12:03:25.443Z,100731.70
2019-04-21T12:08:34.353Z,100724.75
2019-04-21T12:13:32.088Z,100719.19
2019-04-21T12:18:34.064Z,100704.92
2019-04-21T12:23:36.472Z,100704.93
2019-04-21T12:28:39.699Z,100704.11
2019-04-21T12:34:07.893Z,100698.36
2019-04-21T12:39:12.804Z,100689.15
2019-04-21T12:44:14.918Z,100686.31
2019-04-21T12:49:17.649Z,100670.50
2019-04-21T12:54:19.717Z,100667.91
2019-04-21T12:59:21.356Z,100655.91
2019-04-21T13:04:23.855Z,100647.81
2019-04-21T13:09:28.459Z,100641.13
2019-04-21T13:14:29.624Z,100638.00
2019-04-21T13:19:31.549Z,100632.67
2019-04-21T13:24:33.686Z,100615.06
2019-04-21T13:29:36.446Z,100613.87
2019-04-21T13:34:38.176Z,100610.66
2019-04-21T13:40:20.687Z,100603.96
2019-04-21T13:45:02.967Z,100595.95
2019-04-21T13:50:07.160Z,100585.29
2019-04-21T13:55:09.635Z,100581.19
2019-04-21T14:00:13.246Z,100578.23
2019-04-21T14:05:15.879Z,100571.61
2019-04-21T14:10:18.054Z,100562.52
2019-04-21T14:15:20.304Z,100551.86
2019-04-21T14:20:22.074Z,100546.38
2019-04-21T14:25:23.933Z,100542.13
2019-04-21T14:30:26.279Z,100542.13
2019-04-21T14:35:29.370Z,100537.17
2019-04-21T14:40:33.347Z,100528.67
2019-04-21T14:45:46.001Z,100526.78
2019-04-21T14:50:55.282Z,100525.08
2019-04-21T14:55:57.485Z,100521.66
2019-04-21T15:01:02.072Z,100506.48
2019-04-21T15:06:05.412Z,100504.83
2019-04-21T15:11:08.609Z,100501.64
2019-04-21T15:16:11.032Z,100498.34
2019-04-21T15:21:13.325Z,100496.53
2019-04-21T15:26:15.054Z,100497.80
2019-04-21T15:31:23.890Z,100495.19
2019-04-21T15:36:20.992Z,100482.92
2019-04-21T15:41:22.740Z,100485.91
2019-04-21T15:46:24.869Z,100472.92
2019-04-21T15:51:26.483Z,100469.10
2019-04-21T15:56:35.059Z,100469.34
2019-04-21T16:01:48.445Z,100456.93
2019-04-21T16:06:50.086Z,100455.20
2019-04-21T16:11:51.706Z,100450.46
2019-04-21T16:16:53.715Z,100439.34
2019-04-21T16:21:56.743Z,100430.28
2019-04-21T16:27:02.824Z,100429.18
2019-04-21T16:32:02.124Z,100414.52
2019-04-21T16:37:03.913Z,100419.22
2019-04-21T16:42:08.307Z,100420.08
2019-04-21T16:47:09.700Z,100416.64
2019-04-21T16:52:20.856Z,100418.14
2019-04-21T16:57:28.030Z,100406.80
2019-04-21T17:02:30.386Z,100402.39
2019-04-21T17:07:32.429Z,100402.16
2019-04-21T17:12:35.554Z,100394.84
2019-04-21T17:17:59.989Z,100394.92
2019-04-21T17:22:41.734Z,100383.16
2019-04-21T17:27:44.870Z,100382.59
2019-04-21T17:32:49.766Z,100379.31
2019-04-21T17:37:50.215Z,100379.69
2019-04-21T17:43:01.547Z,100378.14
2019-04-21T17:48:01.298Z,100380.20
2019-04-21T17:53:10.589Z,100368.98
2019-04-21T17:58:22.070Z,100374.16
2019-04-21T18:03:43.643Z,100376.08
2019-04-21T18:08:38.715Z,100373.13
2019-04-21T18:13:22.995Z,100376.73
2019-04-21T18:18:23.534Z,100374.44
2019-04-21T18:23:42.883Z,100370.91
2019-04-21T18:28:35.008Z,100378.67
2019-04-21T18:33:42.218Z,100377.16
2019-04-21T18:39:10.257Z,100380.64
2019-04-21T18:44:28.172Z,100379.34
2019-04-21T18:49:11.419Z,100379.07
2019-04-21T18:54:37.119Z,100386.88
2019-04-21T18:59:31.510Z,100379.91
2019-04-21T19:04:29.340Z,100381.44
2019-04-21T19:14:52.114Z,100396.15
2019-04-21T19:20:04.693Z,100394.31
2019-04-21T19:24:59.766Z,100391.70
2019-04-21T19:30:23.381Z,100391.77
2019-04-21T19:34:49.690Z,100391.81
2019-04-21T19:40:03.594Z,100391.25
2019-04-21T19:45:11.878Z,100390.56
2019-04-21T19:50:15.828Z,100387.67
2019-04-21T19:55:02.384Z,100392.94
2019-04-21T20:00:07.446Z,100391.97
2019-04-21T20:05:13.592Z,100385.78
2019-04-21T20:10:32.808Z,100390.55
2019-04-21T20:15:41.537Z,100384.88
2019-04-21T20:20:21.273Z,100386.67
2019-04-21T20:25:24.949Z,100378.12
2019-04-21T20:30:42.292Z,100379.53
2019-04-21T20:35:57.218Z,100375.99
2019-04-21T20:40:41.267Z,100371.75
2019-04-21T20:45:59.353Z,100371.12
2019-04-21T20:51:03.187Z,100372.43
2019-04-21T20:55:58.203Z,100367.39
2019-04-21T21:01:22.545Z,100366.06
2019-04-21T21:06:03.742Z,100371.18
2019-04-21T21:11:08.008Z,100367.62
2019-04-21T21:16:20.151Z,100370.39
2019-04-21T21:21:20.728Z,100366.47
2019-04-21T21:26:25.329Z,100354.14
2019-04-21T21:31:35.086Z,100357.14
2019-04-21T21:36:31.792Z,100359.90
2019-04-21T21:41:26.557Z,100359.48
2019-04-21T21:46:42.713Z,100357.84
2019-04-21T21:51:48.408Z,100352.70
2019-04-21T21:56:32.578Z,100352.53
2019-04-21T22:01:39.869Z,100354.02
2019-04-21T22:06:47.140Z,100350.55
2019-04-21T22:11:42.204Z,100353.89
2019-04-21T22:17:00.989Z,100354.26
2019-04-21T22:22:07.727Z,100342.08
2019-04-21T22:26:52.475Z,100338.47
2019-04-21T22:32:01.377Z,100336.84
2019-04-21T22:37:14.343Z,100334.00
2019-04-21T22:42:11.158Z,100326.30
2019-04-21T22:47:12.072Z,100330.12
2019-04-21T22:52:15.134Z,100340.17
2019-04-21T22:57:17.652Z,100337.05
2019-04-21T23:02:22.639Z,100331.91
2019-04-21T23:07:24.339Z,100323.88
2019-04-21T23:12:31.164Z,100334.95
2019-04-21T23:17:50.748Z,100335.84
2019-04-21T23:23:00.849Z,100324.69
2019-04-21T23:27:56.191Z,100330.30
2019-04-21T23:32:50.438Z,100321.55
2019-04-21T23:37:51.959Z,100322.11
2019-04-21T23:42:47.244Z,100322.98
2019-04-21T23:48:05.013Z,100320.94
2019-04-21T23:52:53.321Z,100314.22
2019-04-21T23:58:02.320Z,100309.68
